createdAt,value
2023-05-10T00:00:14.170Z,5.1
2023-05-10T00:03:14.102Z,4.9
2023-05-10T00:06:14.070Z,5.3
2023-05-10T00:09:14.079Z,5.1
2023-05-10T00:12:14.073Z,5.4
2023-05-10T00:15:14.092Z,5.8
2023-05-10T00:18:14.075Z,5.6
2023-05-10T00:21:14.094Z,5.3
2023-05-10T00:24:14.092Z,5
2023-05-10T00:27:14.095Z,4.9
2023-05-10T00:30:14.168Z,5.3
2023-05-10T00:33:14.083Z,5.3
2023-05-10T00:36:14.089Z,5.2
2023-05-10T00:39:14.093Z,5.2
2023-05-10T00:42:14.091Z,5.8
2023-05-10T00:45:14.095Z,6.2
2023-05-10T00:48:14.100Z,5.2
2023-05-10T00:51:14.101Z,5.8
2023-05-10T00:54:14.093Z,6.2
2023-05-10T00:57:14.098Z,6
2023-05-10T01:00:14.295Z,5.6
2023-05-10T01:03:14.210Z,5.4
2023-05-10T01:06:14.109Z,5.9
2023-05-10T01:09:14.116Z,5.7
2023-05-10T01:12:14.135Z,4.5
2023-05-10T01:15:14.105Z,5.8
2023-05-10T01:18:14.111Z,5
2023-05-10T01:21:14.104Z,7.1
2023-05-10T01:24:14.109Z,5.4
2023-05-10T01:27:14.121Z,6.6
2023-05-10T01:30:16.094Z,5.6
2023-05-10T01:33:14.116Z,6.1
2023-05-10T01:36:14.113Z,6.5
2023-05-10T01:39:14.107Z,6.2
2023-05-10T01:42:14.109Z,6.1
2023-05-10T01:45:14.120Z,6.5
2023-05-10T01:48:14.116Z,5.8
2023-05-10T01:51:14.119Z,5.4
2023-05-10T01:54:14.117Z,6.4
2023-05-10T01:57:14.111Z,6.8
2023-05-10T02:00:14.189Z,6
2023-05-10T02:03:14.153Z,5.9
2023-05-10T02:06:14.123Z,5.9
2023-05-10T02:09:14.118Z,7.9
2023-05-10T02:12:14.125Z,6.1
2023-05-10T02:15:14.125Z,7.4
2023-05-10T02:18:14.124Z,6
2023-05-10T02:21:14.137Z,9
2023-05-10T02:24:14.136Z,7
2023-05-10T02:27:14.137Z,6.1
2023-05-10T02:30:14.231Z,6.4
2023-05-10T02:33:14.134Z,5.7
2023-05-10T02:36:14.137Z,5.8
2023-05-10T02:39:14.142Z,7
2023-05-10T02:42:14.143Z,6.1
2023-05-10T02:45:14.167Z,6.5
2023-05-10T02:48:14.189Z,7.8
2023-05-10T02:51:14.149Z,6.6
2023-05-10T02:54:14.155Z,7.1
2023-05-10T02:57:14.154Z,7.1
2023-05-10T03:00:14.290Z,6.4
2023-05-10T03:03:14.145Z,5.8
2023-05-10T03:06:14.156Z,7.2
2023-05-10T03:09:14.153Z,7.6
2023-05-10T03:12:14.169Z,6.5
2023-05-10T03:15:14.161Z,7.9
2023-05-10T03:18:14.163Z,6.8
2023-05-10T03:21:14.166Z,7.3
2023-05-10T03:24:14.168Z,6.6
2023-05-10T03:27:14.167Z,7.1
2023-05-10T03:30:14.238Z,7.4
2023-05-10T03:33:14.184Z,6.1
2023-05-10T03:36:14.185Z,7.2
2023-05-10T03:39:14.182Z,7
2023-05-10T03:42:14.175Z,6.2
2023-05-10T03:45:14.192Z,5.6
2023-05-10T03:48:14.179Z,6.7
2023-05-10T03:51:14.180Z,6
2023-05-10T03:54:14.189Z,6.4
2023-05-10T03:57:14.184Z,6.8
2023-05-10T04:00:14.275Z,7.3
2023-05-10T04:03:14.267Z,5.5
2023-05-10T04:06:14.246Z,6.7
2023-05-10T04:09:14.191Z,6.4
2023-05-10T04:12:14.192Z,7.3
2023-05-10T04:15:14.195Z,6.8
2023-05-10T04:18:14.200Z,6.4
2023-05-10T04:21:14.197Z,6.1
2023-05-10T04:24:14.205Z,7.5
2023-05-10T04:27:14.206Z,5.8
2023-05-10T04:30:14.288Z,7
2023-05-10T04:33:14.210Z,6.5
2023-05-10T04:36:14.224Z,7.3
2023-05-10T04:39:14.212Z,8.7
2023-05-10T04:42:14.215Z,6
2023-05-10T04:45:14.217Z,7.4
2023-05-10T04:48:14.219Z,5.6
2023-05-10T04:51:14.227Z,7.7
2023-05-10T04:54:14.225Z,7.2
2023-05-10T04:57:14.219Z,5.9
2023-05-10T05:00:14.278Z,7.3
2023-05-10T05:03:14.295Z,6.6
2023-05-10T05:06:14.232Z,5.3
2023-05-10T05:09:14.235Z,9.3
2023-05-10T05:12:14.237Z,5.6
2023-05-10T05:15:14.247Z,6.5
2023-05-10T05:18:14.245Z,5.5
2023-05-10T05:21:14.242Z,5.9
2023-05-10T05:24:14.270Z,6.9
2023-05-10T05:27:14.256Z,7
2023-05-10T05:30:14.327Z,5.6
2023-05-10T05:33:14.260Z,6.8
2023-05-10T05:36:14.254Z,6.1
2023-05-10T05:39:14.260Z,6.4
2023-05-10T05:42:14.255Z,8.1
2023-05-10T05:45:14.492Z,8
2023-05-10T05:48:14.273Z,7.2
2023-05-10T05:51:14.272Z,6.6
2023-05-10T05:54:14.269Z,7.3
2023-05-10T05:57:14.281Z,7
2023-05-10T06:00:14.285Z,6.3
2023-05-10T06:03:14.332Z,7.6
2023-05-10T06:06:14.280Z,6.2
2023-05-10T06:09:14.294Z,7.7
2023-05-10T06:12:14.294Z,6.4
2023-05-10T06:15:14.364Z,6.3
2023-05-10T06:18:14.373Z,8.5
2023-05-10T06:21:14.294Z,5.7
2023-05-10T06:24:14.304Z,7.3
2023-05-10T06:27:14.304Z,6.2
2023-05-10T06:30:14.372Z,6.1
2023-05-10T06:33:14.305Z,6.7
2023-05-10T06:36:14.329Z,7.7
2023-05-10T06:39:14.310Z,6.1
2023-05-10T06:42:14.308Z,7.1
2023-05-10T06:45:14.371Z,8
2023-05-10T06:48:14.328Z,5.9
2023-05-10T06:51:14.317Z,6.6
2023-05-10T06:54:14.336Z,7.3
2023-05-10T06:57:23.738Z,7.2
2023-05-10T07:00:14.358Z,6.2
2023-05-10T07:03:14.376Z,6.1
2023-05-10T07:06:25.709Z,6.8
2023-05-10T07:09:14.342Z,7.1
2023-05-10T07:12:15.504Z,7.6
2023-05-10T07:15:14.440Z,7.4
2023-05-10T07:18:14.362Z,6.2
2023-05-10T07:21:14.404Z,6.2
2023-05-10T07:24:14.353Z,6.4
2023-05-10T07:27:14.363Z,7.6
2023-05-10T07:30:14.367Z,6.9
2023-05-10T07:33:14.385Z,6.2
2023-05-10T07:36:14.371Z,6.6
2023-05-10T07:39:18.562Z,5.4
2023-05-10T07:42:14.372Z,7.1
2023-05-10T07:45:14.469Z,6.9
2023-05-10T07:48:14.378Z,6
2023-05-10T07:51:14.381Z,6.6
2023-05-10T07:54:14.385Z,5.6
2023-05-10T07:57:14.387Z,6.5
2023-05-10T08:00:14.404Z,6.9
2023-05-10T08:03:14.484Z,8.3
2023-05-10T08:06:14.405Z,7
2023-05-10T08:09:14.411Z,6.8
2023-05-10T08:12:14.404Z,6.5
2023-05-10T08:15:14.476Z,5.5
2023-05-10T08:18:14.429Z,7.3
2023-05-10T08:21:14.411Z,6.3
2023-05-10T08:24:14.410Z,8.7
2023-05-10T08:27:14.417Z,7.6
2023-05-10T08:30:14.420Z,6
2023-05-10T08:33:14.450Z,6.6
2023-05-10T08:36:14.421Z,7.3
2023-05-10T08:39:23.286Z,6.9
2023-05-10T08:42:14.432Z,7.2
2023-05-10T08:45:14.507Z,6.1
2023-05-10T08:48:14.457Z,8
2023-05-10T08:51:14.435Z,7.4
2023-05-10T08:54:14.436Z,7.6
2023-05-10T08:57:14.441Z,5.7
2023-05-10T09:00:14.432Z,6.4
2023-05-10T09:03:14.446Z,6.2
2023-05-10T09:06:14.454Z,6.6
2023-05-10T09:09:14.446Z,6.6
2023-05-10T09:12:14.459Z,6.5
2023-05-10T09:15:14.661Z,6.2
2023-05-10T09:18:14.489Z,6.8
2023-05-10T09:21:14.442Z,5.9
2023-05-10T09:24:14.447Z,6.3
2023-05-10T09:27:14.462Z,6.8
2023-05-10T09:30:14.467Z,6.8
2023-05-10T09:33:14.459Z,6
2023-05-10T09:36:14.468Z,5.7
2023-05-10T09:39:14.483Z,6.6
2023-05-10T09:42:14.473Z,5.9
2023-05-10T09:45:14.663Z,6.2
2023-05-10T09:48:14.489Z,7.4
2023-05-10T09:51:14.475Z,6.6
2023-05-10T09:54:14.497Z,5.8
2023-05-10T09:57:14.486Z,6.6
2023-05-10T10:00:14.495Z,6.9
2023-05-10T10:03:14.495Z,7
2023-05-10T10:06:22.851Z,6.5
2023-05-10T10:09:14.498Z,8.4
2023-05-10T10:12:14.491Z,7
2023-05-10T10:15:16.559Z,7.2
2023-05-10T10:18:14.508Z,8.4
2023-05-10T10:21:14.518Z,8.7
2023-05-10T10:24:14.522Z,7.6
2023-05-10T10:27:14.511Z,7.4
2023-05-10T10:30:14.679Z,7.4
2023-05-10T10:33:27.048Z,8.2
2023-05-10T10:36:14.532Z,7.6
2023-05-10T10:39:14.536Z,8.4
2023-05-10T10:42:14.535Z,7.3
2023-05-10T10:45:14.796Z,7.2
2023-05-10T10:48:14.544Z,7.5
2023-05-10T10:51:14.550Z,7.9
2023-05-10T10:54:14.549Z,7.6
2023-05-10T10:57:14.561Z,7.8
2023-05-10T11:00:14.583Z,7.7
2023-05-10T11:03:14.670Z,9.7
2023-05-10T11:06:14.566Z,7.8
2023-05-10T11:09:14.556Z,8.1
2023-05-10T11:12:14.570Z,7.8
2023-05-10T11:15:14.768Z,8
2023-05-10T11:18:14.570Z,8.2
2023-05-10T11:21:14.579Z,8.3
2023-05-10T11:24:14.591Z,6.6
2023-05-10T11:27:14.591Z,7
2023-05-10T11:30:14.678Z,7.1
2023-05-10T11:33:14.590Z,6
2023-05-10T11:36:14.597Z,5.8
2023-05-10T11:39:14.610Z,7.3
2023-05-10T11:42:14.609Z,6.9
2023-05-10T11:45:14.633Z,6.6
2023-05-10T11:48:14.637Z,6.1
2023-05-10T11:51:14.615Z,5.6
2023-05-10T11:54:14.639Z,5.4
2023-05-10T11:57:14.621Z,4.8
2023-05-10T12:00:14.838Z,7
2023-05-10T12:03:14.725Z,4.9
2023-05-10T12:06:14.647Z,5.8
2023-05-10T12:09:14.643Z,5.5
2023-05-10T12:12:14.644Z,4.7
2023-05-10T12:15:14.651Z,4.9
2023-05-10T12:18:14.663Z,4.9
2023-05-10T12:21:14.664Z,4.8
2023-05-10T12:24:14.673Z,3.7
2023-05-10T12:27:14.673Z,2.9
2023-05-10T12:30:14.783Z,3.4
2023-05-10T12:33:14.726Z,2.9
2023-05-10T12:36:14.709Z,3.5
2023-05-10T12:39:14.688Z,2.2
2023-05-10T12:42:14.697Z,2.1
2023-05-10T12:45:14.690Z,2.5
2023-05-10T12:48:14.747Z,2.3
2023-05-10T12:51:14.718Z,1.9
2023-05-10T12:54:14.708Z,1.9
2023-05-10T12:57:14.709Z,2.1
2023-05-10T13:00:14.760Z,1.5
2023-05-10T13:03:14.721Z,2.6
2023-05-10T13:06:14.728Z,2
2023-05-10T13:09:14.734Z,2.5
2023-05-10T13:12:14.736Z,1.9
2023-05-10T13:15:14.728Z,2.1
2023-05-10T13:18:14.821Z,2.4
2023-05-10T13:21:14.735Z,2.8
2023-05-10T13:24:14.739Z,1.9
2023-05-10T13:27:14.756Z,1.9
2023-05-10T13:30:14.813Z,1.9
2023-05-10T13:33:14.756Z,2.5
2023-05-10T13:36:14.757Z,2.1
2023-05-10T13:39:14.777Z,1.6
2023-05-10T13:42:14.770Z,1.5
2023-05-10T13:45:14.953Z,3.4
2023-05-10T13:48:14.788Z,1.7
2023-05-10T13:51:14.799Z,1.9
2023-05-10T13:54:14.800Z,1.6
2023-05-10T13:57:14.822Z,1.4
2023-05-10T14:00:14.824Z,1.8
2023-05-10T14:03:14.859Z,2.7
2023-05-10T14:06:14.824Z,1.6
2023-05-10T14:09:14.847Z,1.8
2023-05-10T14:12:14.844Z,1.9
2023-05-10T14:15:14.930Z,1.8
2023-05-10T14:18:14.858Z,1.8
2023-05-10T14:21:14.858Z,1.3
2023-05-10T14:24:14.876Z,1.3
2023-05-10T14:27:14.871Z,1.3
2023-05-10T14:30:14.880Z,1.3
2023-05-10T14:33:14.894Z,2.1
2023-05-10T14:36:14.895Z,1.5
2023-05-10T14:39:14.906Z,1.9
2023-05-10T14:42:14.909Z,1.7
2023-05-10T14:45:14.988Z,1.8
2023-05-10T14:48:14.927Z,2.3
2023-05-10T14:51:14.931Z,1.7
2023-05-10T14:54:14.940Z,2
2023-05-10T14:57:14.958Z,2.4
2023-05-10T15:00:15.046Z,2.3
2023-05-10T15:03:15.008Z,2.1
2023-05-10T15:06:14.966Z,2.6
2023-05-10T15:09:14.977Z,2.1
2023-05-10T15:12:14.981Z,2.9
2023-05-10T15:15:15.111Z,2.7
2023-05-10T15:18:15.002Z,2.8
2023-05-10T15:21:15.004Z,2.2
2023-05-10T15:24:15.020Z,2.7
2023-05-10T15:27:15.013Z,2
2023-05-10T15:30:15.017Z,2.4
2023-05-10T15:33:15.042Z,2.6
2023-05-10T15:36:15.046Z,2.3
2023-05-10T15:39:15.051Z,3.1
2023-05-10T15:42:15.054Z,3.2
2023-05-10T15:45:15.135Z,2.8
2023-05-10T15:48:15.101Z,2.8
2023-05-10T15:51:15.084Z,2.9
2023-05-10T15:54:15.084Z,2.5
2023-05-10T15:57:15.097Z,2.5
2023-05-10T16:00:15.141Z,2.2
2023-05-10T16:03:15.145Z,3.1
2023-05-10T16:06:15.126Z,2.6
2023-05-10T16:09:15.144Z,3.7
2023-05-10T16:12:15.144Z,3.6
2023-05-10T16:15:15.339Z,3.4
2023-05-10T16:18:15.184Z,2.8
2023-05-10T16:21:15.180Z,2.7
2023-05-10T16:24:15.185Z,2.7
2023-05-10T16:27:15.186Z,2.5
2023-05-10T16:30:15.200Z,2.6
2023-05-10T16:33:15.206Z,2.7
2023-05-10T16:36:15.220Z,3.1
2023-05-10T16:39:15.232Z,3.6
2023-05-10T16:42:15.231Z,2.9
2023-05-10T16:45:15.366Z,2.7
2023-05-10T16:48:15.479Z,3.2
2023-05-10T16:51:15.259Z,3.8
2023-05-10T16:54:15.271Z,3.6
2023-05-10T16:57:15.278Z,4.3
2023-05-10T17:00:15.489Z,2.8
2023-05-10T17:03:15.363Z,3.2
2023-05-10T17:06:15.315Z,3.9
2023-05-10T17:09:15.323Z,2.8
2023-05-10T17:12:15.336Z,4.4
2023-05-10T17:15:15.521Z,3.1
2023-05-10T17:18:15.351Z,4.3
2023-05-10T17:21:15.359Z,3.3
2023-05-10T17:24:15.375Z,2.9
2023-05-10T17:27:15.376Z,3.6
2023-05-10T17:30:15.391Z,3.2
2023-05-10T17:33:15.401Z,3.4
2023-05-10T17:36:15.411Z,3.4
2023-05-10T17:39:15.420Z,3
2023-05-10T17:42:15.438Z,3.3
2023-05-10T17:45:15.681Z,4.6
2023-05-10T17:48:15.451Z,4.4
2023-05-10T17:51:15.461Z,3.7
2023-05-10T17:54:15.473Z,3.5
2023-05-10T17:57:15.487Z,3.6
2023-05-10T18:00:15.495Z,4.7
2023-05-10T18:03:15.508Z,4
2023-05-10T18:06:15.518Z,4
2023-05-10T18:09:15.531Z,4.2
2023-05-10T18:12:15.550Z,3.1
2023-05-10T18:15:15.640Z,4.4
2023-05-10T18:18:15.563Z,4.1
2023-05-10T18:21:15.574Z,4.3
2023-05-10T18:24:16.801Z,4.1
2023-05-10T18:27:15.610Z,4.4
2023-05-10T18:30:15.624Z,6.1
2023-05-10T18:33:15.611Z,6.2
2023-05-10T18:36:15.631Z,6
2023-05-10T18:39:15.640Z,5.1
2023-05-10T18:42:15.663Z,5.8
2023-05-10T18:45:15.945Z,5
2023-05-10T18:48:15.670Z,6.3
2023-05-10T18:51:15.696Z,6.6
2023-05-10T18:54:15.700Z,6
2023-05-10T18:57:15.704Z,5.8
2023-05-10T19:00:15.722Z,7
2023-05-10T19:03:15.730Z,6.9
2023-05-10T19:06:15.744Z,6.5
2023-05-10T19:09:15.757Z,6.8
2023-05-10T19:12:15.771Z,7.6
2023-05-10T19:15:16.653Z,7.6
2023-05-10T19:18:15.787Z,7.7
2023-05-10T19:21:16.140Z,7.7
2023-05-10T19:24:15.806Z,8
2023-05-10T19:27:16.051Z,7.2
2023-05-10T19:30:15.809Z,7.2
2023-05-10T19:33:15.891Z,7.8
2023-05-10T19:36:15.823Z,7.8
2023-05-10T19:39:15.835Z,8.4
2023-05-10T19:42:15.843Z,6.7
2023-05-10T19:45:16.166Z,8
2023-05-10T19:48:15.855Z,7.2
2023-05-10T19:51:15.862Z,7.5
2023-05-10T19:54:15.855Z,7.2
2023-05-10T19:57:15.865Z,8.1
2023-05-10T20:00:15.865Z,9.2
2023-05-10T20:03:15.926Z,7.6
2023-05-10T20:06:15.893Z,8.4
2023-05-10T20:09:15.879Z,7.3
2023-05-10T20:12:15.886Z,8.5
2023-05-10T20:15:16.050Z,8
2023-05-10T20:18:15.904Z,7.9
2023-05-10T20:21:15.909Z,7.7
2023-05-10T20:24:15.907Z,9.3
2023-05-10T20:27:15.933Z,7.7
2023-05-10T20:30:16.108Z,8.7
2023-05-10T20:33:15.913Z,8.5
2023-05-10T20:36:15.911Z,7.9
2023-05-10T20:39:15.918Z,8.8
2023-05-10T20:42:15.924Z,8.1
2023-05-10T20:45:15.940Z,8.6
2023-05-10T20:48:15.942Z,8.7
2023-05-10T20:51:15.962Z,9.1
2023-05-10T20:54:15.954Z,8.3
2023-05-10T20:57:15.947Z,9.7
2023-05-10T21:00:16.154Z,9.3
2023-05-10T21:03:16.020Z,8.6
2023-05-10T21:06:15.971Z,8.7
2023-05-10T21:09:15.976Z,9.8
2023-05-10T21:12:15.981Z,9.6
2023-05-10T21:15:15.987Z,10.3
2023-05-10T21:18:16.010Z,10
2023-05-10T21:21:15.992Z,11.1
2023-05-10T21:24:16.005Z,10.4
2023-05-10T21:27:16.017Z,11.4
2023-05-10T21:30:16.176Z,10.7
2023-05-10T21:33:16.017Z,11.1
2023-05-10T21:36:16.031Z,11.3
2023-05-10T21:39:16.022Z,10.9
2023-05-10T21:42:16.027Z,11.1
2023-05-10T21:45:16.019Z,10.7
2023-05-10T21:48:16.078Z,11.2
2023-05-10T21:51:16.034Z,13.5
2023-05-10T21:54:16.031Z,13
2023-05-10T21:57:16.041Z,13.6
2023-05-10T22:00:16.276Z,14.5
2023-05-10T22:03:16.111Z,15.5
2023-05-10T22:06:16.049Z,16.5
2023-05-10T22:09:16.050Z,16.3
2023-05-10T22:12:16.053Z,16.2
2023-05-10T22:15:16.063Z,15.7
2023-05-10T22:18:16.066Z,14.6
2023-05-10T22:21:16.072Z,16.2
2023-05-10T22:24:16.072Z,13.1
2023-05-10T22:27:16.079Z,13.3
2023-05-10T22:30:16.489Z,12.9
2023-05-10T22:33:16.088Z,11.9
2023-05-10T22:36:16.094Z,12.8
2023-05-10T22:39:16.104Z,12.8
2023-05-10T22:42:16.105Z,11.6
2023-05-10T22:45:16.121Z,11.5
2023-05-10T22:48:16.111Z,12.5
2023-05-10T22:51:16.121Z,12.2
2023-05-10T22:54:16.116Z,12
2023-05-10T22:57:16.117Z,10.4
2023-05-10T23:00:16.434Z,10.9
2023-05-10T23:03:16.129Z,11.8
2023-05-10T23:06:16.129Z,10.5
2023-05-10T23:09:16.130Z,13.2
2023-05-10T23:12:16.135Z,12.7
2023-05-10T23:15:16.140Z,14.1
2023-05-10T23:18:16.143Z,14.5
2023-05-10T23:21:16.145Z,15.4
2023-05-10T23:24:16.151Z,14.1
2023-05-10T23:27:16.165Z,14.4
2023-05-10T23:30:16.316Z,12.3
2023-05-10T23:33:16.190Z,12
2023-05-10T23:36:16.169Z,13.2
2023-05-10T23:39:16.164Z,14.8
2023-05-10T23:42:16.171Z,14.5
2023-05-10T23:45:16.182Z,12.1
2023-05-10T23:48:16.184Z,12.2
2023-05-10T23:51:16.185Z,12.9
2023-05-10T23:54:16.208Z,13.5
2023-05-10T23:57:16.208Z,12.8
